createdAt,value
2023-03-29T00:03:52.868Z,2.98
2023-03-29T00:08:09.738Z,3.23
2023-03-29T00:12:27.161Z,3.06
2023-03-29T00:16:45.489Z,2.98
2023-03-29T00:21:02.230Z,2.79
2023-03-29T00:25:18.719Z,2.86
2023-03-29T00:29:34.962Z,2.75
2023-03-29T00:33:51.336Z,2.71
2023-03-29T00:38:08.159Z,2.90
2023-03-29T00:42:25.752Z,2.90
2023-03-29T00:46:42.190Z,3.00
2023-03-29T00:51:09.886Z,2.89
2023-03-29T00:55:29.526Z,2.98
2023-03-29T00:59:47.205Z,2.88
2023-03-29T01:04:07.036Z,2.74
2023-03-29T01:08:31.967Z,2.94
2023-03-29T01:12:51.974Z,2.76
2023-03-29T01:17:08.310Z,2.79
2023-03-29T01:21:51.696Z,2.83
2023-03-29T01:26:16.665Z,2.75
2023-03-29T01:30:50.119Z,2.70
2023-03-29T01:35:10.858Z,2.43
2023-03-29T01:39:27.566Z,2.31
2023-03-29T01:43:49.480Z,2.47
2023-03-29T01:48:17.014Z,2.24
2023-03-29T01:52:38.890Z,2.47
2023-03-29T01:56:57.486Z,2.32
2023-03-29T02:01:18.114Z,2.10
2023-03-29T02:05:35.202Z,2.31
2023-03-29T02:09:52.812Z,1.87
2023-03-29T02:14:10.125Z,1.85
2023-03-29T02:18:26.437Z,1.78
2023-03-29T02:22:51.405Z,1.60
2023-03-29T02:27:07.914Z,1.65
2023-03-29T02:31:30.481Z,1.61
2023-03-29T02:36:02.618Z,1.86
2023-03-29T02:40:20.205Z,1.83
2023-03-29T02:44:40.263Z,1.76
2023-03-29T02:48:57.860Z,1.64
2023-03-29T02:53:19.189Z,1.26
2023-03-29T02:57:38.447Z,1.45
2023-03-29T03:01:54.798Z,1.69
2023-03-29T03:06:12.796Z,1.64
2023-03-29T03:10:28.948Z,1.71
2023-03-29T03:14:45.266Z,1.84
2023-03-29T03:19:02.197Z,1.78
2023-03-29T03:23:19.058Z,1.74
2023-03-29T03:27:35.507Z,1.80
2023-03-29T03:31:53.929Z,1.78
2023-03-29T03:36:11.538Z,1.78
2023-03-29T03:40:28.395Z,1.75
2023-03-29T03:44:45.159Z,1.64
2023-03-29T03:49:01.392Z,1.56
2023-03-29T03:53:18.826Z,1.59
2023-03-29T03:57:37.583Z,1.22
2023-03-29T04:01:53.922Z,1.21
2023-03-29T04:06:11.392Z,1.34
2023-03-29T04:10:27.686Z,1.47
2023-03-29T04:14:43.870Z,1.15
2023-03-29T04:19:00.186Z,1.22
2023-03-29T04:23:16.804Z,1.23
2023-03-29T04:27:33.625Z,1.29
2023-03-29T04:31:49.868Z,1.10
2023-03-29T04:36:07.441Z,1.14
2023-03-29T04:40:23.785Z,1.18
2023-03-29T04:44:40.486Z,1.40
2023-03-29T04:48:56.802Z,1.33
2023-03-29T04:53:13.207Z,1.53
2023-03-29T04:57:29.766Z,1.43
2023-03-29T05:01:46.096Z,1.45
2023-03-29T05:06:07.458Z,1.58
2023-03-29T05:10:23.894Z,1.45
2023-03-29T05:14:40.455Z,1.61
2023-03-29T05:18:59.727Z,1.64
2023-03-29T05:23:17.728Z,1.50
2023-03-29T05:27:34.161Z,1.66
2023-03-29T05:31:51.021Z,1.44
2023-03-29T05:36:15.068Z,1.58
2023-03-29T05:40:32.345Z,1.72
2023-03-29T05:44:48.625Z,1.99
2023-03-29T05:49:05.135Z,1.98
2023-03-29T05:53:23.041Z,2.17
2023-03-29T05:57:39.991Z,2.15
2023-03-29T06:01:56.192Z,2.38
2023-03-29T06:06:12.619Z,2.35
2023-03-29T06:10:29.009Z,2.43
2023-03-29T06:14:45.843Z,2.49
2023-03-29T06:19:02.208Z,2.73
2023-03-29T06:23:19.972Z,2.92
2023-03-29T06:27:36.659Z,2.98
2023-03-29T06:31:54.177Z,3.21
2023-03-29T06:36:12.196Z,3.31
2023-03-29T06:40:28.432Z,3.33
2023-03-29T06:44:44.646Z,3.60
2023-03-29T06:49:03.784Z,3.69
2023-03-29T06:53:20.307Z,3.69
2023-03-29T06:57:36.956Z,3.89
2023-03-29T07:01:54.204Z,3.82
2023-03-29T07:06:12.557Z,3.90
2023-03-29T07:10:33.998Z,4.31
2023-03-29T07:14:50.422Z,4.61
2023-03-29T07:19:07.013Z,4.79
2023-03-29T07:23:23.204Z,4.53
2023-03-29T07:27:41.992Z,4.65
2023-03-29T07:31:58.336Z,4.89
2023-03-29T07:36:15.827Z,4.89
2023-03-29T07:40:32.086Z,5.08
2023-03-29T07:44:48.769Z,5.52
2023-03-29T07:49:05.758Z,5.88
2023-03-29T07:53:21.931Z,5.33
2023-03-29T07:57:38.648Z,5.75
2023-03-29T08:01:55.612Z,6.12
2023-03-29T08:06:11.782Z,6.05
2023-03-29T08:10:28.855Z,6.04
2023-03-29T08:14:45.064Z,6.15
2023-03-29T08:19:01.292Z,6.43
2023-03-29T08:23:17.683Z,6.17
2023-03-29T08:27:34.763Z,5.92
2023-03-29T08:31:50.978Z,6.71
2023-03-29T08:36:07.502Z,6.65
2023-03-29T08:40:26.740Z,6.38
2023-03-29T08:45:11.700Z,6.58
2023-03-29T08:49:29.183Z,6.46
2023-03-29T08:53:50.753Z,6.58
2023-03-29T08:58:12.320Z,6.99
2023-03-29T09:02:32.035Z,7.08
2023-03-29T09:06:48.947Z,7.19
2023-03-29T09:11:38.834Z,7.17
2023-03-29T09:16:27.434Z,6.67
2023-03-29T09:20:52.588Z,7.41
2023-03-29T09:25:26.607Z,7.53
2023-03-29T09:30:06.406Z,7.88
2023-03-29T09:34:31.110Z,8.19
2023-03-29T09:38:54.540Z,8.15
2023-03-29T09:43:15.667Z,7.98
2023-03-29T09:48:05.508Z,8.25
2023-03-29T09:52:21.855Z,8.38
2023-03-29T09:56:38.565Z,8.71
2023-03-29T10:00:59.326Z,9.16
2023-03-29T10:05:19.183Z,9.71
2023-03-29T10:09:35.691Z,10.21
2023-03-29T10:13:57.624Z,9.49
2023-03-29T10:18:14.417Z,10.19
2023-03-29T10:22:38.075Z,10.60
2023-03-29T10:26:58.009Z,10.83
2023-03-29T10:31:20.560Z,10.84
2023-03-29T10:35:42.070Z,10.52
2023-03-29T10:39:58.466Z,10.14
2023-03-29T10:44:57.587Z,10.55
2023-03-29T10:49:21.331Z,10.57
2023-03-29T10:53:38.038Z,11.08
2023-03-29T10:58:04.570Z,11.57
2023-03-29T11:02:34.805Z,11.87
2023-03-29T11:07:11.183Z,12.07
2023-03-29T11:11:44.190Z,11.98
2023-03-29T11:16:25.790Z,11.61
2023-03-29T11:21:23.713Z,11.93
2023-03-29T11:26:01.114Z,11.81
2023-03-29T11:30:29.323Z,12.31
2023-03-29T11:35:23.844Z,12.23
2023-03-29T11:40:12.917Z,11.92
2023-03-29T11:44:31.606Z,11.62
2023-03-29T11:49:15.114Z,11.59
2023-03-29T11:53:51.497Z,10.77
2023-03-29T11:58:27.858Z,11.55
2023-03-29T12:02:53.004Z,11.51
2023-03-29T12:07:28.278Z,11.65
2023-03-29T12:11:52.698Z,11.08
2023-03-29T12:16:20.891Z,11.81
2023-03-29T12:20:39.867Z,12.30
2023-03-29T12:24:57.781Z,12.59
2023-03-29T12:29:26.085Z,13.19
2023-03-29T12:34:00.946Z,13.55
2023-03-29T12:38:25.221Z,14.71
2023-03-29T12:43:02.585Z,14.14
2023-03-29T12:47:23.753Z,14.00
2023-03-29T12:51:42.780Z,13.62
2023-03-29T12:56:08.755Z,14.23
2023-03-29T13:00:46.729Z,15.26
2023-03-29T13:05:05.283Z,15.28
2023-03-29T13:09:25.256Z,16.23
2023-03-29T13:13:43.302Z,15.90
2023-03-29T13:18:12.383Z,15.51
2023-03-29T13:22:53.548Z,15.73
2023-03-29T13:27:25.405Z,14.76
2023-03-29T13:32:00.409Z,14.96
2023-03-29T13:36:43.294Z,15.03
2023-03-29T13:41:07.468Z,14.66
2023-03-29T13:45:25.888Z,14.36
2023-03-29T13:49:43.536Z,13.65
2023-03-29T13:54:21.511Z,14.55
2023-03-29T13:58:43.411Z,14.02
2023-03-29T14:03:04.783Z,13.58
2023-03-29T14:07:26.593Z,13.37
2023-03-29T14:11:46.077Z,13.72
2023-03-29T14:16:07.109Z,14.22
2023-03-29T14:20:24.191Z,12.99
2023-03-29T14:24:48.376Z,13.84
2023-03-29T14:29:04.654Z,13.88
2023-03-29T14:33:29.418Z,13.90
2023-03-29T14:37:46.647Z,13.85
2023-03-29T14:42:03.004Z,13.64
2023-03-29T14:46:22.497Z,13.41
2023-03-29T14:50:39.023Z,13.23
2023-03-29T14:54:59.619Z,13.71
2023-03-29T14:59:39.860Z,14.12
2023-03-29T15:04:02.112Z,13.90
2023-03-29T15:08:33.145Z,14.17
2023-03-29T15:12:52.537Z,13.82
2023-03-29T15:17:43.147Z,14.09
2023-03-29T15:22:11.318Z,13.77
2023-03-29T15:26:31.786Z,13.81
2023-03-29T15:31:00.798Z,13.67
2023-03-29T15:35:26.431Z,13.76
2023-03-29T15:39:44.304Z,13.37
2023-03-29T15:44:01.046Z,13.33
2023-03-29T15:48:20.106Z,13.26
2023-03-29T15:52:36.955Z,13.01
2023-03-29T15:57:01.678Z,12.98
2023-03-29T16:01:37.834Z,12.85
2023-03-29T16:05:56.933Z,12.03
2023-03-29T16:10:13.207Z,11.32
2023-03-29T16:14:34.024Z,11.21
2023-03-29T16:18:50.800Z,11.28
2023-03-29T16:23:11.682Z,10.76
2023-03-29T16:27:27.910Z,10.18
2023-03-29T16:31:48.043Z,10.32
2023-03-29T16:36:04.882Z,10.42
2023-03-29T16:40:21.349Z,10.54
2023-03-29T16:44:37.648Z,10.42
2023-03-29T16:48:54.080Z,10.10
2023-03-29T16:53:13.135Z,10.46
2023-03-29T16:57:29.367Z,10.41
2023-03-29T17:01:46.094Z,9.86
2023-03-29T17:06:03.872Z,10.05
2023-03-29T17:10:20.367Z,10.25
2023-03-29T17:14:36.752Z,10.15
2023-03-29T17:18:53.023Z,9.65
2023-03-29T17:23:09.243Z,9.97
2023-03-29T17:27:25.556Z,10.20
2023-03-29T17:31:48.058Z,9.92
2023-03-29T17:36:06.067Z,10.41
2023-03-29T17:40:23.143Z,10.41
2023-03-29T17:44:39.348Z,10.67
2023-03-29T17:48:56.237Z,10.85
2023-03-29T17:53:15.518Z,10.98
2023-03-29T17:57:31.791Z,10.96
2023-03-29T18:01:48.056Z,11.12
2023-03-29T18:06:05.714Z,11.20
2023-03-29T18:10:22.285Z,11.07
2023-03-29T18:14:38.491Z,10.95
2023-03-29T18:18:54.660Z,10.70
2023-03-29T18:23:10.972Z,10.71
2023-03-29T18:27:27.267Z,10.66
2023-03-29T18:31:43.980Z,10.53
2023-03-29T18:36:00.395Z,10.60
2023-03-29T18:40:20.449Z,10.55
2023-03-29T18:44:36.786Z,10.42
2023-03-29T18:48:53.561Z,10.59
2023-03-29T18:53:09.820Z,10.42
2023-03-29T18:57:26.172Z,10.30
2023-03-29T19:01:42.394Z,10.20
2023-03-29T19:05:58.809Z,10.39
2023-03-29T19:10:15.051Z,10.29
2023-03-29T19:14:31.406Z,10.28
2023-03-29T19:18:47.732Z,10.11
2023-03-29T19:23:04.939Z,10.17
2023-03-29T19:27:24.311Z,10.24
2023-03-29T19:31:40.639Z,10.31
2023-03-29T19:35:59.215Z,10.02
2023-03-29T19:40:15.565Z,10.06
2023-03-29T19:44:32.262Z,9.96
2023-03-29T19:48:48.643Z,9.76
2023-03-29T19:53:04.809Z,9.74
2023-03-29T19:57:21.823Z,9.96
2023-03-29T20:01:39.576Z,9.92
2023-03-29T20:05:57.162Z,10.04
2023-03-29T20:10:13.599Z,9.88
2023-03-29T20:14:29.812Z,10.06
2023-03-29T20:18:46.829Z,9.90
2023-03-29T20:23:05.460Z,9.94
2023-03-29T20:27:21.771Z,9.87
2023-03-29T20:31:38.070Z,9.84
2023-03-29T20:35:54.344Z,9.94
2023-03-29T20:40:11.552Z,10.01
2023-03-29T20:44:28.579Z,9.96
2023-03-29T20:48:54.480Z,9.82
2023-03-29T20:53:10.736Z,10.05
2023-03-29T20:57:29.227Z,9.74
2023-03-29T21:01:47.324Z,9.74
2023-03-29T21:06:04.002Z,9.75
2023-03-29T21:10:20.784Z,9.64
2023-03-29T21:14:38.120Z,9.69
2023-03-29T21:18:54.430Z,9.47
2023-03-29T21:23:10.913Z,9.45
2023-03-29T21:27:27.127Z,9.64
2023-03-29T21:31:43.346Z,9.37
2023-03-29T21:35:59.792Z,9.22
2023-03-29T21:40:16.037Z,9.18
2023-03-29T21:44:34.360Z,9.19
2023-03-29T21:48:51.103Z,8.97
2023-03-29T21:53:07.566Z,9.03
2023-03-29T21:57:23.887Z,8.83
2023-03-29T22:01:40.325Z,8.78
2023-03-29T22:06:03.301Z,8.60
2023-03-29T22:10:23.293Z,8.62
2023-03-29T22:14:39.569Z,8.48
2023-03-29T22:18:55.835Z,8.59
2023-03-29T22:23:13.515Z,8.61
2023-03-29T22:27:29.909Z,8.40
2023-03-29T22:31:46.230Z,8.22
2023-03-29T22:36:03.935Z,8.19
2023-03-29T22:40:20.113Z,8.03
2023-03-29T22:44:36.451Z,8.27
2023-03-29T22:48:53.301Z,8.14
2023-03-29T22:53:10.609Z,7.87
2023-03-29T22:57:26.898Z,8.04
2023-03-29T23:01:43.341Z,7.95
2023-03-29T23:06:02.499Z,7.96
2023-03-29T23:10:19.060Z,8.06
2023-03-29T23:14:35.733Z,8.06
2023-03-29T23:18:51.937Z,7.88
2023-03-29T23:23:08.767Z,7.73
2023-03-29T23:27:26.318Z,7.92
2023-03-29T23:31:42.646Z,7.84
2023-03-29T23:35:59.611Z,7.93
2023-03-29T23:40:16.080Z,7.98
2023-03-29T23:44:32.354Z,8.00
2023-03-29T23:48:50.359Z,7.88
2023-03-29T23:53:06.834Z,7.97
2023-03-29T23:57:23.340Z,7.93
